sensor_id;sensor_type;location;lat;lon;timestamp;temperature;humidity
35746;DHT22;21870;42.812;74.628;2023-04-24T00:00:57;16.40;81.10
35746;DHT22;21870;42.812;74.628;2023-04-24T00:03:24;16.40;81.70
35746;DHT22;21870;42.812;74.628;2023-04-24T00:05:50;16.40;83.30
35746;DHT22;21870;42.812;74.628;2023-04-24T00:08:18;16.30;83.60
35746;DHT22;21870;42.812;74.628;2023-04-24T00:10:44;16.30;83.90
35746;DHT22;21870;42.812;74.628;2023-04-24T00:13:10;16.20;83.20
35746;DHT22;21870;42.812;74.628;2023-04-24T00:15:36;16.10;85.90
35746;DHT22;21870;42.812;74.628;2023-04-24T00:18:02;16.10;88.60
35746;DHT22;21870;42.812;74.628;2023-04-24T00:20:28;16.00;84.30
35746;DHT22;21870;42.812;74.628;2023-04-24T00:23:04;16.10;83.60
35746;DHT22;21870;42.812;74.628;2023-04-24T00:25:30;16.10;83.70
35746;DHT22;21870;42.812;74.628;2023-04-24T00:27:56;16.20;83.80
35746;DHT22;21870;42.812;74.628;2023-04-24T00:30:22;16.20;84.70
35746;DHT22;21870;42.812;74.628;2023-04-24T00:32:49;16.20;86.60
35746;DHT22;21870;42.812;74.628;2023-04-24T00:35:15;16.20;85.10
35746;DHT22;21870;42.812;74.628;2023-04-24T00:37:41;16.30;84.50
35746;DHT22;21870;42.812;74.628;2023-04-24T00:40:07;16.30;84.60
35746;DHT22;21870;42.812;74.628;2023-04-24T00:42:34;16.30;85.10
35746;DHT22;21870;42.812;74.628;2023-04-24T00:45:01;16.30;85.00
35746;DHT22;21870;42.812;74.628;2023-04-24T00:47:28;16.40;85.10
35746;DHT22;21870;42.812;74.628;2023-04-24T00:49:55;16.40;85.40
35746;DHT22;21870;42.812;74.628;2023-04-24T00:52:21;16.40;86.10
35746;DHT22;21870;42.812;74.628;2023-04-24T00:54:49;16.40;86.00
35746;DHT22;21870;42.812;74.628;2023-04-24T00:57:16;16.50;85.70
35746;DHT22;21870;42.812;74.628;2023-04-24T00:59:43;16.60;86.10
35746;DHT22;21870;42.812;74.628;2023-04-24T01:02:10;16.60;86.50
35746;DHT22;21870;42.812;74.628;2023-04-24T01:04:37;16.70;85.60
35746;DHT22;21870;42.812;74.628;2023-04-24T01:07:04;16.80;85.60
35746;DHT22;21870;42.812;74.628;2023-04-24T01:09:40;16.90;85.70
35746;DHT22;21870;42.812;74.628;2023-04-24T01:12:09;17.00;85.90
35746;DHT22;21870;42.812;74.628;2023-04-24T01:14:35;17.00;85.90
35746;DHT22;21870;42.812;74.628;2023-04-24T01:17:02;17.10;87.00
35746;DHT22;21870;42.812;74.628;2023-04-24T01:19:28;17.20;85.70
35746;DHT22;21870;42.812;74.628;2023-04-24T01:21:54;17.30;85.50
35746;DHT22;21870;42.812;74.628;2023-04-24T01:24:23;17.30;86.00
35746;DHT22;21870;42.812;74.628;2023-04-24T01:26:50;17.40;86.30
35746;DHT22;21870;42.812;74.628;2023-04-24T01:29:16;17.60;85.60
35746;DHT22;21870;42.812;74.628;2023-04-24T01:31:42;17.70;85.70
35746;DHT22;21870;42.812;74.628;2023-04-24T01:34:09;17.80;85.60
35746;DHT22;21870;42.812;74.628;2023-04-24T01:36:35;18.00;84.40
35746;DHT22;21870;42.812;74.628;2023-04-24T01:39:01;18.20;84.20
35746;DHT22;21870;42.812;74.628;2023-04-24T01:41:29;18.30;83.70
35746;DHT22;21870;42.812;74.628;2023-04-24T01:43:57;18.40;83.80
35746;DHT22;21870;42.812;74.628;2023-04-24T01:46:24;18.60;83.70
35746;DHT22;21870;42.812;74.628;2023-04-24T01:48:51;18.70;84.80
35746;DHT22;21870;42.812;74.628;2023-04-24T01:51:18;18.80;84.20
35746;DHT22;21870;42.812;74.628;2023-04-24T01:53:44;18.90;85.40
35746;DHT22;21870;42.812;74.628;2023-04-24T01:56:10;19.10;87.30
35746;DHT22;21870;42.812;74.628;2023-04-24T01:58:37;19.30;87.10
35746;DHT22;21870;42.812;74.628;2023-04-24T02:01:03;19.40;86.10
35746;DHT22;21870;42.812;74.628;2023-04-24T02:03:29;19.50;85.30
35746;DHT22;21870;42.812;74.628;2023-04-24T02:05:58;19.60;86.50
35746;DHT22;21870;42.812;74.628;2023-04-24T02:08:24;19.80;84.50
35746;DHT22;21870;42.812;74.628;2023-04-24T02:10:50;20.00;83.50
35746;DHT22;21870;42.812;74.628;2023-04-24T02:13:17;20.20;83.40
35746;DHT22;21870;42.812;74.628;2023-04-24T02:15:43;20.40;81.30
35746;DHT22;21870;42.812;74.628;2023-04-24T02:18:09;20.50;80.90
35746;DHT22;21870;42.812;74.628;2023-04-24T02:20:35;20.70;80.30
35746;DHT22;21870;42.812;74.628;2023-04-24T02:23:02;20.90;80.10
35746;DHT22;21870;42.812;74.628;2023-04-24T02:25:28;21.10;79.20
35746;DHT22;21870;42.812;74.628;2023-04-24T02:27:54;21.10;78.20
35746;DHT22;21870;42.812;74.628;2023-04-24T02:30:20;21.30;79.70
35746;DHT22;21870;42.812;74.628;2023-04-24T02:32:46;21.40;80.70
35746;DHT22;21870;42.812;74.628;2023-04-24T02:35:12;21.50;82.20
35746;DHT22;21870;42.812;74.628;2023-04-24T02:37:38;21.70;82.90
35746;DHT22;21870;42.812;74.628;2023-04-24T02:40:05;21.90;85.60
35746;DHT22;21870;42.812;74.628;2023-04-24T02:42:31;22.20;81.00
35746;DHT22;21870;42.812;74.628;2023-04-24T02:44:58;22.30;79.00
35746;DHT22;21870;42.812;74.628;2023-04-24T02:47:24;22.50;76.80
35746;DHT22;21870;42.812;74.628;2023-04-24T02:49:50;22.50;77.20
35746;DHT22;21870;42.812;74.628;2023-04-24T02:52:16;22.60;76.70
35746;DHT22;21870;42.812;74.628;2023-04-24T02:54:43;22.70;77.00
35746;DHT22;21870;42.812;74.628;2023-04-24T02:57:09;22.80;76.10
35746;DHT22;21870;42.812;74.628;2023-04-24T02:59:35;23.00;74.80
35746;DHT22;21870;42.812;74.628;2023-04-24T03:02:01;23.10;76.20
35746;DHT22;21870;42.812;74.628;2023-04-24T03:04:27;23.10;73.00
35746;DHT22;21870;42.812;74.628;2023-04-24T03:06:56;23.30;74.50
35746;DHT22;21870;42.812;74.628;2023-04-24T03:09:22;23.60;75.70
35746;DHT22;21870;42.812;74.628;2023-04-24T03:11:48;23.70;76.50
35746;DHT22;21870;42.812;74.628;2023-04-24T03:14:15;23.80;78.30
35746;DHT22;21870;42.812;74.628;2023-04-24T03:16:41;23.90;78.90
35746;DHT22;21870;42.812;74.628;2023-04-24T03:19:07;24.00;77.90
35746;DHT22;21870;42.812;74.628;2023-04-24T03:21:34;24.10;73.40
35746;DHT22;21870;42.812;74.628;2023-04-24T03:24:01;24.30;74.70
35746;DHT22;21870;42.812;74.628;2023-04-24T03:26:27;24.40;70.80
35746;DHT22;21870;42.812;74.628;2023-04-24T03:28:54;24.50;71.90
35746;DHT22;21870;42.812;74.628;2023-04-24T03:31:20;24.60;71.90
35746;DHT22;21870;42.812;74.628;2023-04-24T03:33:46;24.70;71.70
35746;DHT22;21870;42.812;74.628;2023-04-24T03:36:13;24.60;73.60
35746;DHT22;21870;42.812;74.628;2023-04-24T03:38:39;24.80;74.50
35746;DHT22;21870;42.812;74.628;2023-04-24T03:41:05;25.00;71.70
35746;DHT22;21870;42.812;74.628;2023-04-24T03:43:31;25.10;68.60
35746;DHT22;21870;42.812;74.628;2023-04-24T03:45:59;25.20;71.80
35746;DHT22;21870;42.812;74.628;2023-04-24T03:48:25;25.30;70.30
35746;DHT22;21870;42.812;74.628;2023-04-24T03:50:51;25.30;68.70
35746;DHT22;21870;42.812;74.628;2023-04-24T03:53:17;25.40;67.90
35746;DHT22;21870;42.812;74.628;2023-04-24T03:55:43;25.60;68.80
35746;DHT22;21870;42.812;74.628;2023-04-24T03:58:09;25.70;68.10
35746;DHT22;21870;42.812;74.628;2023-04-24T04:00:37;25.70;69.60
35746;DHT22;21870;42.812;74.628;2023-04-24T04:03:03;26.00;70.30
35746;DHT22;21870;42.812;74.628;2023-04-24T04:05:29;26.10;67.00
35746;DHT22;21870;42.812;74.628;2023-04-24T04:07:55;26.30;64.70
35746;DHT22;21870;42.812;74.628;2023-04-24T04:10:21;26.40;65.30
35746;DHT22;21870;42.812;74.628;2023-04-24T04:12:47;26.30;66.80
35746;DHT22;21870;42.812;74.628;2023-04-24T04:15:13;26.50;66.40
35746;DHT22;21870;42.812;74.628;2023-04-24T04:17:39;26.60;65.70
35746;DHT22;21870;42.812;74.628;2023-04-24T04:20:06;26.70;66.70
35746;DHT22;21870;42.812;74.628;2023-04-24T04:22:36;26.90;70.80
35746;DHT22;21870;42.812;74.628;2023-04-24T04:25:03;26.90;68.60
35746;DHT22;21870;42.812;74.628;2023-04-24T04:27:30;26.90;70.30
35746;DHT22;21870;42.812;74.628;2023-04-24T04:30:01;26.70;69.60
35746;DHT22;21870;42.812;74.628;2023-04-24T04:32:34;26.50;66.20
35746;DHT22;21870;42.812;74.628;2023-04-24T04:35:00;26.30;67.80
35746;DHT22;21870;42.812;74.628;2023-04-24T04:37:29;26.40;69.30
35746;DHT22;21870;42.812;74.628;2023-04-24T04:39:57;26.30;68.40
35746;DHT22;21870;42.812;74.628;2023-04-24T04:42:26;26.40;67.30
35746;DHT22;21870;42.812;74.628;2023-04-24T04:44:56;26.70;69.30
35746;DHT22;21870;42.812;74.628;2023-04-24T04:47:23;26.90;67.20
35746;DHT22;21870;42.812;74.628;2023-04-24T04:49:49;27.10;66.70
35746;DHT22;21870;42.812;74.628;2023-04-24T04:52:17;27.30;67.70
35746;DHT22;21870;42.812;74.628;2023-04-24T04:54:44;27.50;72.90
35746;DHT22;21870;42.812;74.628;2023-04-24T04:57:10;27.70;69.50
35746;DHT22;21870;42.812;74.628;2023-04-24T04:59:37;27.80;64.90
35746;DHT22;21870;42.812;74.628;2023-04-24T05:02:03;27.80;62.80
35746;DHT22;21870;42.812;74.628;2023-04-24T05:04:29;27.70;58.80
35746;DHT22;21870;42.812;74.628;2023-04-24T05:06:56;27.80;60.00
35746;DHT22;21870;42.812;74.628;2023-04-24T05:09:22;28.00;59.70
35746;DHT22;21870;42.812;74.628;2023-04-24T05:11:48;28.10;57.90
35746;DHT22;21870;42.812;74.628;2023-04-24T05:14:14;28.10;60.00
35746;DHT22;21870;42.812;74.628;2023-04-24T05:16:40;28.20;60.30
35746;DHT22;21870;42.812;74.628;2023-04-24T05:19:06;28.40;64.90
35746;DHT22;21870;42.812;74.628;2023-04-24T05:21:32;28.40;62.90
35746;DHT22;21870;42.812;74.628;2023-04-24T05:23:58;28.50;63.20
35746;DHT22;21870;42.812;74.628;2023-04-24T05:26:24;28.50;59.90
35746;DHT22;21870;42.812;74.628;2023-04-24T05:28:51;28.40;60.90
35746;DHT22;21870;42.812;74.628;2023-04-24T05:31:17;28.50;61.70
35746;DHT22;21870;42.812;74.628;2023-04-24T05:33:43;28.50;61.20
35746;DHT22;21870;42.812;74.628;2023-04-24T05:36:09;28.50;59.80
35746;DHT22;21870;42.812;74.628;2023-04-24T05:38:35;28.70;63.10
35746;DHT22;21870;42.812;74.628;2023-04-24T05:41:01;28.80;63.80
35746;DHT22;21870;42.812;74.628;2023-04-24T05:43:28;28.70;61.30
35746;DHT22;21870;42.812;74.628;2023-04-24T05:45:54;28.70;60.30
35746;DHT22;21870;42.812;74.628;2023-04-24T05:48:21;28.70;62.80
35746;DHT22;21870;42.812;74.628;2023-04-24T05:50:48;28.80;62.50
35746;DHT22;21870;42.812;74.628;2023-04-24T05:53:14;28.90;59.70
35746;DHT22;21870;42.812;74.628;2023-04-24T05:55:41;29.20;62.50
35746;DHT22;21870;42.812;74.628;2023-04-24T05:58:07;29.10;62.70
35746;DHT22;21870;42.812;74.628;2023-04-24T06:00:33;29.10;59.10
35746;DHT22;21870;42.812;74.628;2023-04-24T06:03:00;29.10;58.70
35746;DHT22;21870;42.812;74.628;2023-04-24T06:05:26;29.10;59.50
35746;DHT22;21870;42.812;74.628;2023-04-24T06:07:52;29.20;58.30
35746;DHT22;21870;42.812;74.628;2023-04-24T06:10:18;29.10;60.50
35746;DHT22;21870;42.812;74.628;2023-04-24T06:12:44;29.30;62.00
35746;DHT22;21870;42.812;74.628;2023-04-24T06:15:11;29.40;60.00
35746;DHT22;21870;42.812;74.628;2023-04-24T06:17:37;29.30;59.30
35746;DHT22;21870;42.812;74.628;2023-04-24T06:20:03;29.40;59.40
35746;DHT22;21870;42.812;74.628;2023-04-24T06:22:31;29.50;59.80
35746;DHT22;21870;42.812;74.628;2023-04-24T06:24:57;29.70;60.30
35746;DHT22;21870;42.812;74.628;2023-04-24T06:27:23;29.70;66.10
35746;DHT22;21870;42.812;74.628;2023-04-24T06:29:49;29.70;63.60
35746;DHT22;21870;42.812;74.628;2023-04-24T06:32:22;29.70;62.10
35746;DHT22;21870;42.812;74.628;2023-04-24T06:34:48;29.70;61.90
35746;DHT22;21870;42.812;74.628;2023-04-24T06:37:14;29.80;62.30
35746;DHT22;21870;42.812;74.628;2023-04-24T06:39:42;29.70;60.10
35746;DHT22;21870;42.812;74.628;2023-04-24T06:42:08;29.70;61.70
35746;DHT22;21870;42.812;74.628;2023-04-24T06:44:35;29.70;62.00
35746;DHT22;21870;42.812;74.628;2023-04-24T06:47:09;29.70;59.90
35746;DHT22;21870;42.812;74.628;2023-04-24T06:49:36;29.80;60.00
35746;DHT22;21870;42.812;74.628;2023-04-24T06:52:03;30.00;60.30
35746;DHT22;21870;42.812;74.628;2023-04-24T06:54:29;29.90;59.80
35746;DHT22;21870;42.812;74.628;2023-04-24T06:56:56;29.80;60.00
35746;DHT22;21870;42.812;74.628;2023-04-24T06:59:24;29.90;60.10
35746;DHT22;21870;42.812;74.628;2023-04-24T07:01:50;29.80;60.40
35746;DHT22;21870;42.812;74.628;2023-04-24T07:04:17;29.90;58.70
35746;DHT22;21870;42.812;74.628;2023-04-24T07:06:46;29.80;58.50
35746;DHT22;21870;42.812;74.628;2023-04-24T07:09:13;29.80;58.30
35746;DHT22;21870;42.812;74.628;2023-04-24T07:11:42;29.80;59.30
35746;DHT22;21870;42.812;74.628;2023-04-24T07:14:10;29.90;59.20
35746;DHT22;21870;42.812;74.628;2023-04-24T07:16:36;30.10;58.60
35746;DHT22;21870;42.812;74.628;2023-04-24T07:19:02;30.20;59.00
35746;DHT22;21870;42.812;74.628;2023-04-24T07:21:28;30.10;58.50
35746;DHT22;21870;42.812;74.628;2023-04-24T07:23:57;30.20;56.40
35746;DHT22;21870;42.812;74.628;2023-04-24T07:26:23;30.20;55.50
35746;DHT22;21870;42.812;74.628;2023-04-24T07:28:49;30.10;55.90
35746;DHT22;21870;42.812;74.628;2023-04-24T07:31:15;30.10;55.60
35746;DHT22;21870;42.812;74.628;2023-04-24T07:33:41;30.10;55.70
35746;DHT22;21870;42.812;74.628;2023-04-24T07:36:07;30.20;57.70
35746;DHT22;21870;42.812;74.628;2023-04-24T07:38:33;30.20;56.40
35746;DHT22;21870;42.812;74.628;2023-04-24T07:40:59;30.20;57.80
35746;DHT22;21870;42.812;74.628;2023-04-24T07:43:26;30.10;59.50
35746;DHT22;21870;42.812;74.628;2023-04-24T07:45:52;30.00;60.10
35746;DHT22;21870;42.812;74.628;2023-04-24T07:48:18;29.90;57.60
35746;DHT22;21870;42.812;74.628;2023-04-24T07:50:47;29.80;57.90
35746;DHT22;21870;42.812;74.628;2023-04-24T07:53:13;29.80;58.40
35746;DHT22;21870;42.812;74.628;2023-04-24T07:55:39;29.90;59.30
35746;DHT22;21870;42.812;74.628;2023-04-24T07:58:05;29.80;58.80
35746;DHT22;21870;42.812;74.628;2023-04-24T08:00:31;29.70;58.80
35746;DHT22;21870;42.812;74.628;2023-04-24T08:03:03;29.80;59.70
35746;DHT22;21870;42.812;74.628;2023-04-24T08:05:29;29.70;62.30
35746;DHT22;21870;42.812;74.628;2023-04-24T08:07:56;29.70;59.00
35746;DHT22;21870;42.812;74.628;2023-04-24T08:10:22;29.70;58.50
35746;DHT22;21870;42.812;74.628;2023-04-24T08:12:49;29.60;59.00
35746;DHT22;21870;42.812;74.628;2023-04-24T08:15:15;29.50;58.70
35746;DHT22;21870;42.812;74.628;2023-04-24T08:17:41;29.50;59.30
35746;DHT22;21870;42.812;74.628;2023-04-24T08:20:09;29.60;58.90
35746;DHT22;21870;42.812;74.628;2023-04-24T08:22:42;29.50;58.90
35746;DHT22;21870;42.812;74.628;2023-04-24T08:25:10;29.30;57.90
35746;DHT22;21870;42.812;74.628;2023-04-24T08:27:36;29.30;59.00
35746;DHT22;21870;42.812;74.628;2023-04-24T08:30:04;29.20;58.90
35746;DHT22;21870;42.812;74.628;2023-04-24T08:32:30;29.10;60.30
35746;DHT22;21870;42.812;74.628;2023-04-24T08:34:57;28.90;59.30
35746;DHT22;21870;42.812;74.628;2023-04-24T08:37:25;28.80;59.30
35746;DHT22;21870;42.812;74.628;2023-04-24T08:39:51;28.50;60.30
35746;DHT22;21870;42.812;74.628;2023-04-24T08:42:18;28.60;59.60
35746;DHT22;21870;42.812;74.628;2023-04-24T08:44:45;28.30;61.00
35746;DHT22;21870;42.812;74.628;2023-04-24T08:47:12;28.20;60.60
35746;DHT22;21870;42.812;74.628;2023-04-24T08:49:38;28.10;60.20
35746;DHT22;21870;42.812;74.628;2023-04-24T08:52:05;28.00;60.20
35746;DHT22;21870;42.812;74.628;2023-04-24T08:54:33;28.00;60.80
35746;DHT22;21870;42.812;74.628;2023-04-24T08:57:01;28.00;61.70
35746;DHT22;21870;42.812;74.628;2023-04-24T08:59:30;28.00;63.10
35746;DHT22;21870;42.812;74.628;2023-04-24T09:01:57;28.00;64.60
35746;DHT22;21870;42.812;74.628;2023-04-24T09:04:24;28.00;63.70
35746;DHT22;21870;42.812;74.628;2023-04-24T09:06:58;28.10;65.00
35746;DHT22;21870;42.812;74.628;2023-04-24T09:09:25;28.10;65.00
35746;DHT22;21870;42.812;74.628;2023-04-24T09:11:52;27.80;65.00
35746;DHT22;21870;42.812;74.628;2023-04-24T09:14:21;27.50;64.20
35746;DHT22;21870;42.812;74.628;2023-04-24T09:16:49;27.00;63.50
35746;DHT22;21870;42.812;74.628;2023-04-24T09:19:16;26.60;64.40
35746;DHT22;21870;42.812;74.628;2023-04-24T09:21:46;26.30;66.50
35746;DHT22;21870;42.812;74.628;2023-04-24T09:24:17;26.00;69.00
35746;DHT22;21870;42.812;74.628;2023-04-24T09:26:44;26.00;70.50
35746;DHT22;21870;42.812;74.628;2023-04-24T09:29:17;25.90;71.60
35746;DHT22;21870;42.812;74.628;2023-04-24T09:31:45;25.90;73.40
35746;DHT22;21870;42.812;74.628;2023-04-24T09:34:11;25.70;75.20
35746;DHT22;21870;42.812;74.628;2023-04-24T09:36:42;25.40;76.50
35746;DHT22;21870;42.812;74.628;2023-04-24T09:39:10;25.30;77.30
35746;DHT22;21870;42.812;74.628;2023-04-24T09:41:55;25.50;78.70
35746;DHT22;21870;42.812;74.628;2023-04-24T09:44:25;25.40;78.30
35746;DHT22;21870;42.812;74.628;2023-04-24T09:46:56;25.40;78.50
35746;DHT22;21870;42.812;74.628;2023-04-24T09:49:24;25.50;78.20
35746;DHT22;21870;42.812;74.628;2023-04-24T09:51:51;25.50;77.40
35746;DHT22;21870;42.812;74.628;2023-04-24T09:54:19;25.70;76.70
35746;DHT22;21870;42.812;74.628;2023-04-24T09:56:50;25.60;76.50
35746;DHT22;21870;42.812;74.628;2023-04-24T09:59:18;25.50;77.90
35746;DHT22;21870;42.812;74.628;2023-04-24T10:01:45;25.30;79.90
35746;DHT22;21870;42.812;74.628;2023-04-24T10:04:18;25.20;80.90
35746;DHT22;21870;42.812;74.628;2023-04-24T10:06:44;25.10;82.10
35746;DHT22;21870;42.812;74.628;2023-04-24T10:09:11;25.10;82.80
35746;DHT22;21870;42.812;74.628;2023-04-24T10:11:42;25.00;81.70
35746;DHT22;21870;42.812;74.628;2023-04-24T10:14:13;24.80;81.30
35746;DHT22;21870;42.812;74.628;2023-04-24T10:16:40;24.80;81.50
35746;DHT22;21870;42.812;74.628;2023-04-24T10:19:07;24.70;80.20
35746;DHT22;21870;42.812;74.628;2023-04-24T10:21:35;24.50;79.60
35746;DHT22;21870;42.812;74.628;2023-04-24T10:24:05;24.40;80.80
35746;DHT22;21870;42.812;74.628;2023-04-24T10:26:33;24.40;81.30
35746;DHT22;21870;42.812;74.628;2023-04-24T10:29:01;24.30;81.00
35746;DHT22;21870;42.812;74.628;2023-04-24T10:31:30;24.20;81.00
35746;DHT22;21870;42.812;74.628;2023-04-24T10:33:58;24.00;81.70
35746;DHT22;21870;42.812;74.628;2023-04-24T10:36:27;23.90;81.50
35746;DHT22;21870;42.812;74.628;2023-04-24T10:39:00;23.90;81.50
35746;DHT22;21870;42.812;74.628;2023-04-24T10:41:27;23.70;81.50
35746;DHT22;21870;42.812;74.628;2023-04-24T10:44:09;23.60;81.90
35746;DHT22;21870;42.812;74.628;2023-04-24T10:46:37;23.50;81.70
35746;DHT22;21870;42.812;74.628;2023-04-24T10:49:07;23.30;82.10
35746;DHT22;21870;42.812;74.628;2023-04-24T10:54:29;23.20;82.30
35746;DHT22;21870;42.812;74.628;2023-04-24T10:59:48;23.00;83.10
35746;DHT22;21870;42.812;74.628;2023-04-24T11:02:15;23.00;84.10
35746;DHT22;21870;42.812;74.628;2023-04-24T11:04:42;23.00;82.50
35746;DHT22;21870;42.812;74.628;2023-04-24T11:07:12;23.00;83.20
35746;DHT22;21870;42.812;74.628;2023-04-24T11:09:38;23.00;83.60
35746;DHT22;21870;42.812;74.628;2023-04-24T11:12:08;23.00;82.90
35746;DHT22;21870;42.812;74.628;2023-04-24T11:14:59;22.90;82.30
35746;DHT22;21870;42.812;74.628;2023-04-24T11:17:38;22.80;83.10
35746;DHT22;21870;42.812;74.628;2023-04-24T11:20:10;22.70;83.60
35746;DHT22;21870;42.812;74.628;2023-04-24T11:22:38;22.80;83.00
35746;DHT22;21870;42.812;74.628;2023-04-24T11:25:06;22.80;83.60
35746;DHT22;21870;42.812;74.628;2023-04-24T11:27:39;22.70;85.60
35746;DHT22;21870;42.812;74.628;2023-04-24T11:30:06;22.70;88.80
35746;DHT22;21870;42.812;74.628;2023-04-24T11:35:01;22.40;81.60
35746;DHT22;21870;42.812;74.628;2023-04-24T11:37:37;22.20;81.80
35746;DHT22;21870;42.812;74.628;2023-04-24T11:40:05;22.00;81.60
35746;DHT22;21870;42.812;74.628;2023-04-24T11:42:36;21.80;82.30
35746;DHT22;21870;42.812;74.628;2023-04-24T11:45:08;21.70;81.00
35746;DHT22;21870;42.812;74.628;2023-04-24T11:47:35;21.60;80.40
35746;DHT22;21870;42.812;74.628;2023-04-24T11:50:01;21.40;80.80
35746;DHT22;21870;42.812;74.628;2023-04-24T11:52:28;21.40;80.60
35746;DHT22;21870;42.812;74.628;2023-04-24T11:54:55;21.40;81.20
35746;DHT22;21870;42.812;74.628;2023-04-24T11:57:22;21.20;80.10
35746;DHT22;21870;42.812;74.628;2023-04-24T11:59:49;21.20;80.50
35746;DHT22;21870;42.812;74.628;2023-04-24T12:02:26;21.10;80.30
35746;DHT22;21870;42.812;74.628;2023-04-24T12:04:55;21.10;79.00
35746;DHT22;21870;42.812;74.628;2023-04-24T12:07:22;20.90;78.60
35746;DHT22;21870;42.812;74.628;2023-04-24T12:09:59;20.80;78.50
35746;DHT22;21870;42.812;74.628;2023-04-24T12:12:28;20.80;78.80
35746;DHT22;21870;42.812;74.628;2023-04-24T12:14:57;20.60;78.20
35746;DHT22;21870;42.812;74.628;2023-04-24T12:17:29;20.60;80.60
35746;DHT22;21870;42.812;74.628;2023-04-24T12:20:04;20.50;81.10
35746;DHT22;21870;42.812;74.628;2023-04-24T12:25:17;20.40;81.30
35746;DHT22;21870;42.812;74.628;2023-04-24T12:27:54;20.40;83.70
35746;DHT22;21870;42.812;74.628;2023-04-24T12:30:21;20.40;83.20
35746;DHT22;21870;42.812;74.628;2023-04-24T12:32:49;20.40;82.30
35746;DHT22;21870;42.812;74.628;2023-04-24T12:35:22;20.30;82.40
35746;DHT22;21870;42.812;74.628;2023-04-24T12:37:49;20.30;85.50
35746;DHT22;21870;42.812;74.628;2023-04-24T12:40:16;20.10;90.30
35746;DHT22;21870;42.812;74.628;2023-04-24T12:42:50;20.00;90.70
35746;DHT22;21870;42.812;74.628;2023-04-24T12:45:17;20.00;90.00
35746;DHT22;21870;42.812;74.628;2023-04-24T12:47:45;20.00;89.20
35746;DHT22;21870;42.812;74.628;2023-04-24T12:50:13;19.90;88.50
35746;DHT22;21870;42.812;74.628;2023-04-24T12:52:40;19.50;92.10
35746;DHT22;21870;42.812;74.628;2023-04-24T12:55:06;19.10;92.50
35746;DHT22;21870;42.812;74.628;2023-04-24T12:57:38;18.80;94.00
35746;DHT22;21870;42.812;74.628;2023-04-24T13:00:06;18.60;95.60
35746;DHT22;21870;42.812;74.628;2023-04-24T13:02:33;18.40;96.80
35746;DHT22;21870;42.812;74.628;2023-04-24T13:04:59;18.30;97.90
35746;DHT22;21870;42.812;74.628;2023-04-24T13:07:26;18.20;99.50
35746;DHT22;21870;42.812;74.628;2023-04-24T13:09:54;18.20;99.90
35746;DHT22;21870;42.812;74.628;2023-04-24T13:12:20;18.20;99.90
35746;DHT22;21870;42.812;74.628;2023-04-24T13:14:47;18.00;99.90
35746;DHT22;21870;42.812;74.628;2023-04-24T13:17:14;17.90;99.90
35746;DHT22;21870;42.812;74.628;2023-04-24T13:19:42;17.80;99.90
35746;DHT22;21870;42.812;74.628;2023-04-24T13:22:10;17.80;99.90
35746;DHT22;21870;42.812;74.628;2023-04-24T13:24:36;17.80;99.90
35746;DHT22;21870;42.812;74.628;2023-04-24T13:27:03;17.70;99.90
35746;DHT22;21870;42.812;74.628;2023-04-24T13:29:29;17.60;99.90
35746;DHT22;21870;42.812;74.628;2023-04-24T13:31:55;17.60;99.90
35746;DHT22;21870;42.812;74.628;2023-04-24T13:34:23;17.60;99.90
35746;DHT22;21870;42.812;74.628;2023-04-24T13:36:53;17.50;99.90
35746;DHT22;21870;42.812;74.628;2023-04-24T13:39:20;17.30;99.90
35746;DHT22;21870;42.812;74.628;2023-04-24T13:41:47;17.30;99.90
35746;DHT22;21870;42.812;74.628;2023-04-24T13:44:14;17.10;99.90
35746;DHT22;21870;42.812;74.628;2023-04-24T13:46:42;17.00;99.90
35746;DHT22;21870;42.812;74.628;2023-04-24T13:49:10;17.00;99.90
35746;DHT22;21870;42.812;74.628;2023-04-24T13:51:36;16.90;99.90
35746;DHT22;21870;42.812;74.628;2023-04-24T13:54:02;16.90;99.90
35746;DHT22;21870;42.812;74.628;2023-04-24T13:56:28;16.90;99.90
35746;DHT22;21870;42.812;74.628;2023-04-24T13:58:54;16.90;99.90
35746;DHT22;21870;42.812;74.628;2023-04-24T14:01:21;16.90;99.90
35746;DHT22;21870;42.812;74.628;2023-04-24T14:03:54;16.90;99.90
35746;DHT22;21870;42.812;74.628;2023-04-24T14:06:21;17.00;99.90
35746;DHT22;21870;42.812;74.628;2023-04-24T14:08:48;17.00;99.90
35746;DHT22;21870;42.812;74.628;2023-04-24T14:11:15;17.00;99.90
35746;DHT22;21870;42.812;74.628;2023-04-24T14:13:41;17.10;99.90
35746;DHT22;21870;42.812;74.628;2023-04-24T14:16:08;17.20;99.90
35746;DHT22;21870;42.812;74.628;2023-04-24T14:18:34;17.30;99.90
35746;DHT22;21870;42.812;74.628;2023-04-24T14:21:02;17.30;99.90
35746;DHT22;21870;42.812;74.628;2023-04-24T14:23:28;17.30;99.90
35746;DHT22;21870;42.812;74.628;2023-04-24T14:25:55;17.30;99.90
35746;DHT22;21870;42.812;74.628;2023-04-24T14:28:21;17.20;99.90
35746;DHT22;21870;42.812;74.628;2023-04-24T14:30:47;17.30;99.90
35746;DHT22;21870;42.812;74.628;2023-04-24T14:33:14;17.30;99.90
35746;DHT22;21870;42.812;74.628;2023-04-24T14:35:41;17.30;99.90
35746;DHT22;21870;42.812;74.628;2023-04-24T14:38:10;17.30;99.90
35746;DHT22;21870;42.812;74.628;2023-04-24T14:40:37;17.30;99.90
35746;DHT22;21870;42.812;74.628;2023-04-24T14:43:03;17.30;99.90
35746;DHT22;21870;42.812;74.628;2023-04-24T14:45:30;17.30;99.90
35746;DHT22;21870;42.812;74.628;2023-04-24T14:47:56;17.40;99.90
35746;DHT22;21870;42.812;74.628;2023-04-24T14:50:22;17.40;99.90
35746;DHT22;21870;42.812;74.628;2023-04-24T14:52:50;17.30;99.90
35746;DHT22;21870;42.812;74.628;2023-04-24T14:55:16;17.30;99.90
35746;DHT22;21870;42.812;74.628;2023-04-24T14:57:42;17.30;99.90
35746;DHT22;21870;42.812;74.628;2023-04-24T15:00:09;17.40;99.90
35746;DHT22;21870;42.812;74.628;2023-04-24T15:02:36;17.30;99.90
35746;DHT22;21870;42.812;74.628;2023-04-24T15:05:06;17.20;99.90
35746;DHT22;21870;42.812;74.628;2023-04-24T15:07:32;17.20;99.90
35746;DHT22;21870;42.812;74.628;2023-04-24T15:09:59;17.10;99.90
35746;DHT22;21870;42.812;74.628;2023-04-24T15:12:25;17.00;99.90
35746;DHT22;21870;42.812;74.628;2023-04-24T15:14:51;16.90;99.90
35746;DHT22;21870;42.812;74.628;2023-04-24T15:17:17;16.90;99.90
35746;DHT22;21870;42.812;74.628;2023-04-24T15:19:43;16.90;99.90
35746;DHT22;21870;42.812;74.628;2023-04-24T15:22:10;16.90;99.90
35746;DHT22;21870;42.812;74.628;2023-04-24T15:24:36;16.90;99.90
35746;DHT22;21870;42.812;74.628;2023-04-24T15:27:02;16.90;99.90